sensor_id;sensor_type;location;lat;lon;timestamp;P1;P2;P0
75946;PMS5003;64628;50.104;14.614;2023-05-02T00:02:26;19;19;
75946;PMS5003;64628;50.104;14.614;2023-05-02T00:09:51;12;12;
75946;PMS5003;64628;50.104;14.614;2023-05-02T00:16:59;17;16;
75946;PMS5003;64628;50.104;14.614;2023-05-02T00:19:27;14;14;
75946;PMS5003;64628;50.104;14.614;2023-05-02T00:50:55;25;23;
75946;PMS5003;64628;50.104;14.614;2023-05-02T01:00:44;22;21;
75946;PMS5003;64628;50.104;14.614;2023-05-02T01:05:27;24;19;
75946;PMS5003;64628;50.104;14.614;2023-05-02T01:12:46;22;20;
75946;PMS5003;64628;50.104;14.614;2023-05-02T01:24:51;22;22;
75946;PMS5003;64628;50.104;14.614;2023-05-02T01:29:43;16;16;
75946;PMS5003;64628;50.104;14.614;2023-05-02T01:39:27;30;28;
75946;PMS5003;64628;50.104;14.614;2023-05-02T01:44:18;28;28;
75946;PMS5003;64628;50.104;14.614;2023-05-02T01:49:05;31;31;
75946;PMS5003;64628;50.104;14.614;2023-05-02T01:51:31;28;27;
75946;PMS5003;64628;50.104;14.614;2023-05-02T01:58:46;33;30;
75946;PMS5003;64628;50.104;14.614;2023-05-02T02:01:10;39;37;
75946;PMS5003;64628;50.104;14.614;2023-05-02T02:06:05;35;31;
75946;PMS5003;64628;50.104;14.614;2023-05-02T02:23:00;33;30;
75946;PMS5003;64628;50.104;14.614;2023-05-02T02:25:27;32;28;
75946;PMS5003;64628;50.104;14.614;2023-05-02T02:30:17;33;33;
75946;PMS5003;64628;50.104;14.614;2023-05-02T02:37:40;37;35;
75946;PMS5003;64628;50.104;14.614;2023-05-02T02:40:06;37;35;
75946;PMS5003;64628;50.104;14.614;2023-05-02T02:52:05;39;38;
75946;PMS5003;64628;50.104;14.614;2023-05-02T02:54:43;35;34;
75946;PMS5003;64628;50.104;14.614;2023-05-02T03:04:13;43;41;
75946;PMS5003;64628;50.104;14.614;2023-05-02T03:18:48;44;42;
75946;PMS5003;64628;50.104;14.614;2023-05-02T03:21:11;50;47;
75946;PMS5003;64628;50.104;14.614;2023-05-02T03:23:42;57;51;
75946;PMS5003;64628;50.104;14.614;2023-05-02T03:28:31;80;76;
75946;PMS5003;64628;50.104;14.614;2023-05-02T03:43:08;45;40;
75946;PMS5003;64628;50.104;14.614;2023-05-02T03:52:42;46;44;
75946;PMS5003;64628;50.104;14.614;2023-05-02T04:04:47;29;29;
75946;PMS5003;64628;50.104;14.614;2023-05-02T04:34:06;35;33;
75946;PMS5003;64628;50.104;14.614;2023-05-02T04:43:41;46;43;
75946;PMS5003;64628;50.104;14.614;2023-05-02T04:55:52;36;32;
75946;PMS5003;64628;50.104;14.614;2023-05-02T05:15:10;34;33;
75946;PMS5003;64628;50.104;14.614;2023-05-02T05:17:33;49;44;
75946;PMS5003;64628;50.104;14.614;2023-05-02T05:20:03;43;41;
75946;PMS5003;64628;50.104;14.614;2023-05-02T05:29:39;39;39;
75946;PMS5003;64628;50.104;14.614;2023-05-02T05:32:08;37;36;
75946;PMS5003;64628;50.104;14.614;2023-05-02T05:34:25;41;37;
75946;PMS5003;64628;50.104;14.614;2023-05-02T05:44:08;37;36;
75946;PMS5003;64628;50.104;14.614;2023-05-02T05:53:52;44;38;
75946;PMS5003;64628;50.104;14.614;2023-05-02T05:58:39;36;33;
75946;PMS5003;64628;50.104;14.614;2023-05-02T06:01:07;39;38;
75946;PMS5003;64628;50.104;14.614;2023-05-02T06:15:45;38;30;
75946;PMS5003;64628;50.104;14.614;2023-05-02T06:18:04;46;42;
75946;PMS5003;64628;50.104;14.614;2023-05-02T06:22:59;35;31;
75946;PMS5003;64628;50.104;14.614;2023-05-02T06:27:48;52;52;
75946;PMS5003;64628;50.104;14.614;2023-05-02T06:32:38;37;32;
75946;PMS5003;64628;50.104;14.614;2023-05-02T06:37:29;42;41;
75946;PMS5003;64628;50.104;14.614;2023-05-02T06:39:56;39;38;
75946;PMS5003;64628;50.104;14.614;2023-05-02T06:44:42;38;36;
75946;PMS5003;64628;50.104;14.614;2023-05-02T06:47:08;51;49;
75946;PMS5003;64628;50.104;14.614;2023-05-02T06:49:38;35;34;
75946;PMS5003;64628;50.104;14.614;2023-05-02T06:54:24;44;43;
75946;PMS5003;64628;50.104;14.614;2023-05-02T06:56:49;42;42;
75946;PMS5003;64628;50.104;14.614;2023-05-02T07:01:39;54;51;
75946;PMS5003;64628;50.104;14.614;2023-05-02T07:04:05;45;41;
75946;PMS5003;64628;50.104;14.614;2023-05-02T07:06:30;44;42;
75946;PMS5003;64628;50.104;14.614;2023-05-02T07:08:55;38;35;
75946;PMS5003;64628;50.104;14.614;2023-05-02T07:11:21;37;34;
75946;PMS5003;64628;50.104;14.614;2023-05-02T07:13:47;46;42;
75946;PMS5003;64628;50.104;14.614;2023-05-02T07:16:12;35;34;
75946;PMS5003;64628;50.104;14.614;2023-05-02T07:18:38;31;31;
75946;PMS5003;64628;50.104;14.614;2023-05-02T07:21:04;32;29;
75946;PMS5003;64628;50.104;14.614;2023-05-02T07:23:30;35;31;
75946;PMS5003;64628;50.104;14.614;2023-05-02T07:25:54;27;26;
75946;PMS5003;64628;50.104;14.614;2023-05-02T07:28:20;32;32;
75946;PMS5003;64628;50.104;14.614;2023-05-02T07:30:46;44;43;
75946;PMS5003;64628;50.104;14.614;2023-05-02T07:33:11;33;31;
75946;PMS5003;64628;50.104;14.614;2023-05-02T07:35:36;35;30;
75946;PMS5003;64628;50.104;14.614;2023-05-02T07:38:01;35;34;
75946;PMS5003;64628;50.104;14.614;2023-05-02T07:40:27;32;30;
75946;PMS5003;64628;50.104;14.614;2023-05-02T07:42:52;29;26;
75946;PMS5003;64628;50.104;14.614;2023-05-02T07:45:18;34;31;
75946;PMS5003;64628;50.104;14.614;2023-05-02T07:47:44;42;35;
75946;PMS5003;64628;50.104;14.614;2023-05-02T07:50:09;36;29;
75946;PMS5003;64628;50.104;14.614;2023-05-02T07:52:34;34;33;
75946;PMS5003;64628;50.104;14.614;2023-05-02T07:55:00;30;29;
75946;PMS5003;64628;50.104;14.614;2023-05-02T07:57:25;38;36;
75946;PMS5003;64628;50.104;14.614;2023-05-02T07:59:51;33;32;
75946;PMS5003;64628;50.104;14.614;2023-05-02T08:02:17;32;29;
75946;PMS5003;64628;50.104;14.614;2023-05-02T08:04:43;27;26;
75946;PMS5003;64628;50.104;14.614;2023-05-02T08:07:08;33;29;
75946;PMS5003;64628;50.104;14.614;2023-05-02T08:09:33;30;28;
75946;PMS5003;64628;50.104;14.614;2023-05-02T08:11:59;33;29;
75946;PMS5003;64628;50.104;14.614;2023-05-02T08:14:25;31;31;
75946;PMS5003;64628;50.104;14.614;2023-05-02T08:16:50;26;26;
75946;PMS5003;64628;50.104;14.614;2023-05-02T08:19:16;35;31;
75946;PMS5003;64628;50.104;14.614;2023-05-02T08:21:41;32;28;
75946;PMS5003;64628;50.104;14.614;2023-05-02T08:24:07;36;34;
75946;PMS5003;64628;50.104;14.614;2023-05-02T08:28:58;28;24;
75946;PMS5003;64628;50.104;14.614;2023-05-02T08:31:23;31;28;
75946;PMS5003;64628;50.104;14.614;2023-05-02T08:33:49;24;23;
75946;PMS5003;64628;50.104;14.614;2023-05-02T08:36:15;27;24;
75946;PMS5003;64628;50.104;14.614;2023-05-02T08:38:40;25;23;
75946;PMS5003;64628;50.104;14.614;2023-05-02T08:41:08;27;26;
75946;PMS5003;64628;50.104;14.614;2023-05-02T08:43:31;28;26;
75946;PMS5003;64628;50.104;14.614;2023-05-02T08:45:56;25;21;
75946;PMS5003;64628;50.104;14.614;2023-05-02T08:48:21;26;25;
75946;PMS5003;64628;50.104;14.614;2023-05-02T08:50:47;22;22;
75946;PMS5003;64628;50.104;14.614;2023-05-02T08:53:13;30;25;
75946;PMS5003;64628;50.104;14.614;2023-05-02T08:55:38;24;23;
75946;PMS5003;64628;50.104;14.614;2023-05-02T08:58:03;27;24;
75946;PMS5003;64628;50.104;14.614;2023-05-02T09:00:29;29;23;
75946;PMS5003;64628;50.104;14.614;2023-05-02T09:02:57;22;22;
75946;PMS5003;64628;50.104;14.614;2023-05-02T09:05:19;31;30;
75946;PMS5003;64628;50.104;14.614;2023-05-02T09:07:45;23;22;
75946;PMS5003;64628;50.104;14.614;2023-05-02T09:10:10;26;22;
75946;PMS5003;64628;50.104;14.614;2023-05-02T09:12:35;23;22;
75946;PMS5003;64628;50.104;14.614;2023-05-02T09:15:09;24;24;
75946;PMS5003;64628;50.104;14.614;2023-05-02T09:17:26;29;29;
75946;PMS5003;64628;50.104;14.614;2023-05-02T09:22:21;23;23;
75946;PMS5003;64628;50.104;14.614;2023-05-02T09:24:42;21;21;
75946;PMS5003;64628;50.104;14.614;2023-05-02T09:27:08;18;18;
75946;PMS5003;64628;50.104;14.614;2023-05-02T09:29:34;25;24;
75946;PMS5003;64628;50.104;14.614;2023-05-02T09:31:59;19;17;
75946;PMS5003;64628;50.104;14.614;2023-05-02T09:34:25;20;19;
75946;PMS5003;64628;50.104;14.614;2023-05-02T09:36:50;25;23;
75946;PMS5003;64628;50.104;14.614;2023-05-02T09:39:16;47;45;
75946;PMS5003;64628;50.104;14.614;2023-05-02T09:41:41;26;23;
75946;PMS5003;64628;50.104;14.614;2023-05-02T09:44:07;34;34;
75946;PMS5003;64628;50.104;14.614;2023-05-02T09:46:34;23;23;
75946;PMS5003;64628;50.104;14.614;2023-05-02T09:48:57;28;24;
75946;PMS5003;64628;50.104;14.614;2023-05-02T09:51:27;32;27;
75946;PMS5003;64628;50.104;14.614;2023-05-02T09:53:48;30;29;
75946;PMS5003;64628;50.104;14.614;2023-05-02T09:56:14;27;27;
75946;PMS5003;64628;50.104;14.614;2023-05-02T09:58:39;35;31;
75946;PMS5003;64628;50.104;14.614;2023-05-02T10:01:04;16;16;
75946;PMS5003;64628;50.104;14.614;2023-05-02T10:03:30;27;26;
75946;PMS5003;64628;50.104;14.614;2023-05-02T10:05:55;18;17;
75946;PMS5003;64628;50.104;14.614;2023-05-02T10:08:23;19;19;
75946;PMS5003;64628;50.104;14.614;2023-05-02T10:10:49;18;18;
75946;PMS5003;64628;50.104;14.614;2023-05-02T10:13:12;21;21;
75946;PMS5003;64628;50.104;14.614;2023-05-02T10:15:41;28;26;
75946;PMS5003;64628;50.104;14.614;2023-05-02T10:18:06;22;20;
75946;PMS5003;64628;50.104;14.614;2023-05-02T10:20:30;26;22;
75946;PMS5003;64628;50.104;14.614;2023-05-02T10:22:54;23;22;
75946;PMS5003;64628;50.104;14.614;2023-05-02T10:25:20;29;27;
75946;PMS5003;64628;50.104;14.614;2023-05-02T10:27:45;24;23;
75946;PMS5003;64628;50.104;14.614;2023-05-02T10:30:11;60;55;
75946;PMS5003;64628;50.104;14.614;2023-05-02T11:16:24;18;18;
75946;PMS5003;64628;50.104;14.614;2023-05-02T11:23:36;23;23;
75946;PMS5003;64628;50.104;14.614;2023-05-02T11:38:12;17;17;
75946;PMS5003;64628;50.104;14.614;2023-05-02T11:43:10;19;19;
75946;PMS5003;64628;50.104;14.614;2023-05-02T11:52:49;25;25;
75946;PMS5003;64628;50.104;14.614;2023-05-02T11:55:09;20;20;
75946;PMS5003;64628;50.104;14.614;2023-05-02T12:07:19;15;15;
75946;PMS5003;64628;50.104;14.614;2023-05-02T12:12:05;17;15;
75946;PMS5003;64628;50.104;14.614;2023-05-02T12:17:06;19;16;
75946;PMS5003;64628;50.104;14.614;2023-05-02T12:19:23;19;17;
75946;PMS5003;64628;50.104;14.614;2023-05-02T12:24:11;16;16;
75946;PMS5003;64628;50.104;14.614;2023-05-02T12:26:39;17;17;
75946;PMS5003;64628;50.104;14.614;2023-05-02T12:29:09;13;13;
75946;PMS5003;64628;50.104;14.614;2023-05-02T12:36:18;16;15;
75946;PMS5003;64628;50.104;14.614;2023-05-02T12:38:47;12;10;
75946;PMS5003;64628;50.104;14.614;2023-05-02T12:48:25;14;12;
75946;PMS5003;64628;50.104;14.614;2023-05-02T12:50:54;14;13;
75946;PMS5003;64628;50.104;14.614;2023-05-02T12:53:14;16;13;
75946;PMS5003;64628;50.104;14.614;2023-05-02T13:03:04;10;10;
75946;PMS5003;64628;50.104;14.614;2023-05-02T13:10:17;11;10;
75946;PMS5003;64628;50.104;14.614;2023-05-02T13:19:53;11;11;
75946;PMS5003;64628;50.104;14.614;2023-05-02T13:22:17;10;9;
75946;PMS5003;64628;50.104;14.614;2023-05-02T13:24:44;14;11;
75946;PMS5003;64628;50.104;14.614;2023-05-02T13:27:13;12;9;
75946;PMS5003;64628;50.104;14.614;2023-05-02T13:29:30;10;10;
75946;PMS5003;64628;50.104;14.614;2023-05-02T13:36:55;18;18;
75946;PMS5003;64628;50.104;14.614;2023-05-02T13:39:11;12;12;
75946;PMS5003;64628;50.104;14.614;2023-05-02T13:41:37;18;18;
75946;PMS5003;64628;50.104;14.614;2023-05-02T13:51:24;14;13;
75946;PMS5003;64628;50.104;14.614;2023-05-02T13:53:45;15;15;
75946;PMS5003;64628;50.104;14.614;2023-05-02T13:58:39;16;14;
75946;PMS5003;64628;50.104;14.614;2023-05-02T14:01:14;15;14;
75946;PMS5003;64628;50.104;14.614;2023-05-02T14:20:31;14;14;
75946;PMS5003;64628;50.104;14.614;2023-05-02T14:25:17;14;13;
75946;PMS5003;64628;50.104;14.614;2023-05-02T14:30:09;13;13;
75946;PMS5003;64628;50.104;14.614;2023-05-02T14:32:32;13;13;
75946;PMS5003;64628;50.104;14.614;2023-05-02T14:37:17;15;14;
75946;PMS5003;64628;50.104;14.614;2023-05-02T14:39:47;18;15;
75946;PMS5003;64628;50.104;14.614;2023-05-02T14:47:00;14;14;
75946;PMS5003;64628;50.104;14.614;2023-05-02T14:49:28;15;15;
75946;PMS5003;64628;50.104;14.614;2023-05-02T14:54:14;17;15;
75946;PMS5003;64628;50.104;14.614;2023-05-02T15:06:21;21;19;
75946;PMS5003;64628;50.104;14.614;2023-05-02T15:08:46;17;14;
75946;PMS5003;64628;50.104;14.614;2023-05-02T15:11:11;16;16;
75946;PMS5003;64628;50.104;14.614;2023-05-02T15:13:36;12;12;
75946;PMS5003;64628;50.104;14.614;2023-05-02T15:16:02;23;21;
75946;PMS5003;64628;50.104;14.614;2023-05-02T15:18:28;15;15;
75946;PMS5003;64628;50.104;14.614;2023-05-02T15:20:53;19;16;
75946;PMS5003;64628;50.104;14.614;2023-05-02T15:23:18;17;16;
75946;PMS5003;64628;50.104;14.614;2023-05-02T15:25:43;16;15;
75946;PMS5003;64628;50.104;14.614;2023-05-02T15:28:08;16;15;
75946;PMS5003;64628;50.104;14.614;2023-05-02T15:30:34;14;13;
75946;PMS5003;64628;50.104;14.614;2023-05-02T15:32:59;13;13;
75946;PMS5003;64628;50.104;14.614;2023-05-02T15:35:24;13;13;
75946;PMS5003;64628;50.104;14.614;2023-05-02T15:37:50;18;14;
75946;PMS5003;64628;50.104;14.614;2023-05-02T15:40:16;16;15;
75946;PMS5003;64628;50.104;14.614;2023-05-02T15:42:41;14;14;
75946;PMS5003;64628;50.104;14.614;2023-05-02T15:45:07;85;79;
75946;PMS5003;64628;50.104;14.614;2023-05-02T15:47:32;103;94;
75946;PMS5003;64628;50.104;14.614;2023-05-02T15:49:58;27;26;
75946;PMS5003;64628;50.104;14.614;2023-05-02T15:52:23;22;20;
75946;PMS5003;64628;50.104;14.614;2023-05-02T15:54:48;56;51;
75946;PMS5003;64628;50.104;14.614;2023-05-02T15:57:13;41;39;
75946;PMS5003;64628;50.104;14.614;2023-05-02T15:59:39;28;27;
75946;PMS5003;64628;50.104;14.614;2023-05-02T16:02:05;51;50;
75946;PMS5003;64628;50.104;14.614;2023-05-02T16:04:30;125;117;
75946;PMS5003;64628;50.104;14.614;2023-05-02T16:06:55;146;139;
75946;PMS5003;64628;50.104;14.614;2023-05-02T16:09:21;41;40;
75946;PMS5003;64628;50.104;14.614;2023-05-02T16:11:47;87;77;
75946;PMS5003;64628;50.104;14.614;2023-05-02T16:14:12;158;151;
75946;PMS5003;64628;50.104;14.614;2023-05-02T16:16:38;82;82;
75946;PMS5003;64628;50.104;14.614;2023-05-02T16:19:04;58;57;
75946;PMS5003;64628;50.104;14.614;2023-05-02T16:21:28;29;27;
75946;PMS5003;64628;50.104;14.614;2023-05-02T16:23:53;77;72;
75946;PMS5003;64628;50.104;14.614;2023-05-02T16:26:19;53;52;
75946;PMS5003;64628;50.104;14.614;2023-05-02T16:28:44;26;23;
75946;PMS5003;64628;50.104;14.614;2023-05-02T16:31:11;23;20;
75946;PMS5003;64628;50.104;14.614;2023-05-02T16:43:17;19;17;
75946;PMS5003;64628;50.104;14.614;2023-05-02T16:48:09;20;15;
75946;PMS5003;64628;50.104;14.614;2023-05-02T16:57:52;21;20;
75946;PMS5003;64628;50.104;14.614;2023-05-02T17:00:19;19;17;
75946;PMS5003;64628;50.104;14.614;2023-05-02T17:02:38;21;20;
75946;PMS5003;64628;50.104;14.614;2023-05-02T17:07:30;21;17;
75946;PMS5003;64628;50.104;14.614;2023-05-02T17:10:03;19;16;
75946;PMS5003;64628;50.104;14.614;2023-05-02T17:12:27;16;15;
75946;PMS5003;64628;50.104;14.614;2023-05-02T17:14:48;21;20;
75946;PMS5003;64628;50.104;14.614;2023-05-02T17:17:18;16;16;
75946;PMS5003;64628;50.104;14.614;2023-05-02T17:22:03;20;20;
75946;PMS5003;64628;50.104;14.614;2023-05-02T17:24:37;19;19;
75946;PMS5003;64628;50.104;14.614;2023-05-02T17:27:00;18;18;
75946;PMS5003;64628;50.104;14.614;2023-05-02T17:29:20;25;21;
75946;PMS5003;64628;50.104;14.614;2023-05-02T17:31:52;31;25;
75946;PMS5003;64628;50.104;14.614;2023-05-02T17:34:10;39;39;
75946;PMS5003;64628;50.104;14.614;2023-05-02T17:36:35;26;25;
75946;PMS5003;64628;50.104;14.614;2023-05-02T17:39:01;27;27;
75946;PMS5003;64628;50.104;14.614;2023-05-02T17:41:32;29;27;
75946;PMS5003;64628;50.104;14.614;2023-05-02T17:43:59;28;26;
75946;PMS5003;64628;50.104;14.614;2023-05-02T17:48:49;26;26;
75946;PMS5003;64628;50.104;14.614;2023-05-02T17:51:13;36;36;
75946;PMS5003;64628;50.104;14.614;2023-05-02T17:53:33;70;68;
75946;PMS5003;64628;50.104;14.614;2023-05-02T17:56:06;22;21;
75946;PMS5003;64628;50.104;14.614;2023-05-02T17:58:28;26;25;
75946;PMS5003;64628;50.104;14.614;2023-05-02T18:08:12;27;24;
75946;PMS5003;64628;50.104;14.614;2023-05-02T18:10:36;39;34;
75946;PMS5003;64628;50.104;14.614;2023-05-02T18:12:56;32;29;
75946;PMS5003;64628;50.104;14.614;2023-05-02T18:17:47;33;28;
75946;PMS5003;64628;50.104;14.614;2023-05-02T18:20:13;29;27;
75946;PMS5003;64628;50.104;14.614;2023-05-02T18:22:45;26;26;
75946;PMS5003;64628;50.104;14.614;2023-05-02T18:32:27;28;28;
75946;PMS5003;64628;50.104;14.614;2023-05-02T18:39:46;84;80;
75946;PMS5003;64628;50.104;14.614;2023-05-02T18:44:38;165;160;
75946;PMS5003;64628;50.104;14.614;2023-05-02T18:46:54;127;127;
75946;PMS5003;64628;50.104;14.614;2023-05-02T19:03:55;28;24;
75946;PMS5003;64628;50.104;14.614;2023-05-02T19:06:33;22;22;
75946;PMS5003;64628;50.104;14.614;2023-05-02T19:08:44;29;28;
75946;PMS5003;64628;50.104;14.614;2023-05-02T19:13:35;29;27;
75946;PMS5003;64628;50.104;14.614;2023-05-02T19:15:59;38;37;
75946;PMS5003;64628;50.104;14.614;2023-05-02T19:18:25;52;49;
75946;PMS5003;64628;50.104;14.614;2023-05-02T19:20:50;54;50;
75946;PMS5003;64628;50.104;14.614;2023-05-02T19:23:16;28;26;
75946;PMS5003;64628;50.104;14.614;2023-05-02T19:25:41;36;34;
75946;PMS5003;64628;50.104;14.614;2023-05-02T19:28:07;28;27;
75946;PMS5003;64628;50.104;14.614;2023-05-02T19:30:32;29;28;
75946;PMS5003;64628;50.104;14.614;2023-05-02T19:32:58;25;23;
75946;PMS5003;64628;50.104;14.614;2023-05-02T19:35:23;30;26;
75946;PMS5003;64628;50.104;14.614;2023-05-02T19:37:48;27;26;
75946;PMS5003;64628;50.104;14.614;2023-05-02T19:40:14;30;29;
75946;PMS5003;64628;50.104;14.614;2023-05-02T19:42:51;25;24;
75946;PMS5003;64628;50.104;14.614;2023-05-02T20:04:33;26;26;
75946;PMS5003;64628;50.104;14.614;2023-05-02T20:07:03;24;23;
75946;PMS5003;64628;50.104;14.614;2023-05-02T20:16:44;18;18;
75946;PMS5003;64628;50.104;14.614;2023-05-02T20:33:40;17;17;
75946;PMS5003;64628;50.104;14.614;2023-05-02T20:38:28;18;16;
75946;PMS5003;64628;50.104;14.614;2023-05-02T20:43:28;18;16;
75946;PMS5003;64628;50.104;14.614;2023-05-02T20:45:46;19;16;
75946;PMS5003;64628;50.104;14.614;2023-05-02T23:18:13;6;6;
75946;PMS5003;64628;50.104;14.614;2023-05-02T23:20:38;12;11;
75946;PMS5003;64628;50.104;14.614;2023-05-02T23:23:04;10;10;
75946;PMS5003;64628;50.104;14.614;2023-05-02T23:25:29;20;17;
75946;PMS5003;64628;50.104;14.614;2023-05-02T23:27:55;16;12;
75946;PMS5003;64628;50.104;14.614;2023-05-02T23:30:20;13;11;
75946;PMS5003;64628;50.104;14.614;2023-05-02T23:32:45;17;16;
75946;PMS5003;64628;50.104;14.614;2023-05-02T23:35:11;13;12;
75946;PMS5003;64628;50.104;14.614;2023-05-02T23:37:36;13;11;
75946;PMS5003;64628;50.104;14.614;2023-05-02T23:40:01;6;6;
75946;PMS5003;64628;50.104;14.614;2023-05-02T23:42:27;6;6;
75946;PMS5003;64628;50.104;14.614;2023-05-02T23:44:52;12;11;
75946;PMS5003;64628;50.104;14.614;2023-05-02T23:47:17;12;11;
75946;PMS5003;64628;50.104;14.614;2023-05-02T23:49:43;9;9;
75946;PMS5003;64628;50.104;14.614;2023-05-02T23:52:08;10;8;
75946;PMS5003;64628;50.104;14.614;2023-05-02T23:54:33;14;8;
75946;PMS5003;64628;50.104;14.614;2023-05-02T23:56:59;11;9;
75946;PMS5003;64628;50.104;14.614;2023-05-02T23:59:24;9;9;
